createdAt,value
2023-04-03T00:00:32.168Z,0.40
2023-04-03T00:02:58.382Z,0.40
2023-04-03T00:05:24.966Z,0.40
2023-04-03T00:07:51.155Z,0.38
2023-04-03T00:10:17.447Z,0.40
2023-04-03T00:12:43.516Z,0.40
2023-04-03T00:15:10.062Z,0.38
2023-04-03T00:17:36.180Z,0.32
2023-04-03T00:20:03.436Z,0.30
2023-04-03T00:22:29.706Z,0.30
2023-04-03T00:24:56.031Z,0.40
2023-04-03T00:27:22.434Z,0.40
2023-04-03T00:29:48.704Z,0.30
2023-04-03T00:32:14.842Z,0.30
2023-04-03T00:34:40.956Z,0.40
2023-04-03T00:37:07.012Z,0.30
2023-04-03T00:39:33.121Z,0.40
2023-04-03T00:41:59.472Z,0.30
2023-04-03T00:44:28.446Z,0.32
2023-04-03T00:46:54.657Z,0.32
2023-04-03T00:49:20.946Z,0.40
2023-04-03T00:51:47.480Z,0.38
2023-04-03T00:54:13.615Z,0.38
2023-04-03T00:56:39.907Z,0.30
2023-04-03T00:59:13.255Z,0.35
2023-04-03T01:01:39.708Z,0.40
2023-04-03T01:04:06.700Z,0.40
2023-04-03T01:06:36.583Z,0.40
2023-04-03T01:09:04.258Z,0.45
2023-04-03T01:11:30.602Z,0.30
2023-04-03T01:13:56.693Z,0.30
2023-04-03T01:16:23.084Z,0.25
2023-04-03T01:18:49.339Z,0.30
2023-04-03T01:21:47.152Z,0.30
2023-04-03T01:24:27.839Z,0.40
2023-04-03T01:26:54.296Z,0.30
2023-04-03T01:29:20.712Z,0.40
2023-04-03T01:31:46.789Z,0.38
2023-04-03T01:34:13.006Z,0.28
2023-04-03T01:36:39.072Z,0.28
2023-04-03T01:39:05.186Z,0.20
2023-04-03T01:41:31.282Z,0.40
2023-04-03T01:43:57.354Z,0.35
2023-04-03T01:46:23.533Z,0.30
2023-04-03T01:48:49.964Z,0.20
2023-04-03T01:51:16.477Z,0.30
2023-04-03T01:53:42.679Z,0.20
2023-04-03T01:56:09.609Z,0.40
2023-04-03T01:58:35.757Z,0.30
2023-04-03T02:01:02.046Z,0.40
2023-04-03T02:03:28.275Z,0.40
2023-04-03T02:05:54.342Z,0.30
2023-04-03T02:08:20.801Z,0.40
2023-04-03T02:10:50.689Z,0.20
2023-04-03T02:13:17.565Z,0.30
2023-04-03T02:15:43.695Z,0.30
2023-04-03T02:18:10.093Z,0.50
2023-04-03T02:20:36.398Z,0.40
2023-04-03T02:23:03.103Z,0.40
2023-04-03T02:25:31.122Z,0.30
2023-04-03T02:27:57.268Z,0.40
2023-04-03T02:30:23.509Z,0.30
2023-04-03T02:32:49.916Z,0.30
2023-04-03T02:35:16.122Z,0.30
2023-04-03T02:37:42.214Z,0.40
2023-04-03T02:40:08.606Z,0.30
2023-04-03T02:42:34.771Z,0.30
2023-04-03T02:45:01.107Z,0.35
2023-04-03T02:47:28.061Z,0.38
2023-04-03T02:49:54.533Z,0.40
2023-04-03T02:52:21.164Z,0.38
2023-04-03T02:54:47.263Z,0.50
2023-04-03T02:57:13.489Z,0.30
2023-04-03T02:59:41.045Z,0.30
2023-04-03T03:02:10.715Z,0.30
2023-04-03T03:04:36.948Z,0.40
2023-04-03T03:07:03.889Z,0.30
2023-04-03T03:09:30.293Z,0.30
2023-04-03T03:11:57.269Z,0.38
2023-04-03T03:14:24.029Z,0.30
2023-04-03T03:16:50.510Z,0.40
2023-04-03T03:19:16.639Z,0.20
2023-04-03T03:21:42.735Z,0.35
2023-04-03T03:24:08.952Z,0.30
2023-04-03T03:26:35.185Z,0.30
2023-04-03T03:29:01.279Z,0.28
2023-04-03T03:31:27.413Z,0.30
2023-04-03T03:33:53.556Z,0.20
2023-04-03T03:36:19.924Z,0.30
2023-04-03T03:38:46.127Z,0.30
2023-04-03T03:41:12.284Z,0.50
2023-04-03T03:43:38.424Z,0.40
2023-04-03T03:46:04.494Z,0.30
2023-04-03T03:48:30.677Z,0.40
2023-04-03T03:50:56.784Z,0.38
2023-04-03T03:53:22.980Z,0.40
2023-04-03T03:55:49.052Z,0.20
2023-04-03T03:58:15.466Z,0.50
2023-04-03T04:00:41.561Z,0.30
2023-04-03T04:03:07.676Z,0.65
2023-04-03T04:05:33.854Z,0.38
2023-04-03T04:08:00.000Z,0.40
2023-04-03T04:10:26.146Z,0.40
2023-04-03T04:12:52.305Z,0.30
2023-04-03T04:15:18.707Z,0.45
2023-04-03T04:17:44.902Z,0.30
2023-04-03T04:20:12.329Z,0.32
2023-04-03T04:22:39.324Z,0.30
2023-04-03T04:25:05.598Z,0.20
2023-04-03T04:27:31.667Z,0.30
2023-04-03T04:29:59.245Z,0.22
2023-04-03T04:32:25.538Z,0.40
2023-04-03T04:34:51.645Z,0.20
2023-04-03T04:37:17.740Z,0.28
2023-04-03T04:39:44.040Z,0.40
2023-04-03T04:42:12.981Z,0.40
2023-04-03T04:44:39.803Z,0.40
2023-04-03T04:47:05.846Z,0.40
2023-04-03T04:49:32.153Z,0.38
2023-04-03T04:51:58.319Z,0.40
2023-04-03T04:54:24.430Z,0.30
2023-04-03T04:56:50.538Z,0.50
2023-04-03T04:59:16.735Z,0.32
2023-04-03T05:01:42.833Z,0.43
2023-04-03T05:04:10.540Z,0.30
2023-04-03T05:06:36.657Z,0.43
2023-04-03T05:09:03.142Z,0.45
2023-04-03T05:11:29.268Z,0.30
2023-04-03T05:13:55.352Z,0.60
2023-04-03T05:16:21.598Z,0.60
2023-04-03T05:18:47.759Z,0.45
2023-04-03T05:21:13.922Z,0.60
2023-04-03T05:23:40.067Z,0.50
2023-04-03T05:26:06.408Z,0.40
2023-04-03T05:28:32.954Z,0.50
2023-04-03T05:30:59.782Z,0.52
2023-04-03T05:33:28.200Z,0.52
2023-04-03T05:35:55.035Z,0.50
2023-04-03T05:38:21.493Z,0.63
2023-04-03T05:40:47.770Z,0.77
2023-04-03T05:43:14.126Z,0.80
2023-04-03T05:45:44.145Z,1.08
2023-04-03T05:48:13.309Z,1.20
2023-04-03T05:50:42.301Z,1.00
2023-04-03T05:53:23.694Z,1.10
2023-04-03T05:55:50.094Z,0.80
2023-04-03T05:58:16.446Z,1.00
2023-04-03T06:00:43.213Z,1.02
2023-04-03T06:03:09.672Z,0.95
2023-04-03T06:05:37.267Z,1.33
2023-04-03T06:08:06.341Z,0.77
2023-04-03T06:10:33.102Z,0.70
2023-04-03T06:12:59.424Z,0.80
2023-04-03T06:15:25.520Z,0.60
2023-04-03T06:17:52.275Z,0.80
2023-04-03T06:20:18.916Z,0.80
2023-04-03T06:22:47.714Z,1.20
2023-04-03T06:25:15.715Z,0.90
2023-04-03T06:27:42.164Z,1.20
2023-04-03T06:30:10.071Z,0.90
2023-04-03T06:32:36.343Z,1.00
2023-04-03T06:35:02.470Z,1.17
2023-04-03T06:37:29.254Z,1.13
2023-04-03T06:39:55.915Z,1.50
2023-04-03T06:42:22.501Z,2.22
2023-04-03T06:44:48.930Z,1.40
2023-04-03T06:47:16.747Z,1.38
2023-04-03T06:49:43.573Z,1.52
2023-04-03T06:52:10.644Z,1.85
2023-04-03T06:54:36.725Z,1.52
2023-04-03T06:57:03.132Z,1.45
2023-04-03T06:59:29.370Z,1.75
2023-04-03T07:01:55.463Z,1.42
2023-04-03T07:04:21.769Z,1.50
2023-04-03T07:06:48.295Z,0.85
2023-04-03T07:09:15.058Z,1.30
2023-04-03T07:11:41.508Z,1.25
2023-04-03T07:14:08.171Z,1.00
2023-04-03T07:16:35.550Z,0.63
2023-04-03T07:19:02.261Z,1.30
2023-04-03T07:21:28.839Z,1.10
2023-04-03T07:23:55.476Z,1.00
2023-04-03T07:26:22.640Z,0.80
2023-04-03T07:28:50.182Z,1.38
2023-04-03T07:31:17.766Z,1.25
2023-04-03T07:33:45.599Z,1.58
2023-04-03T07:36:16.886Z,2.03
2023-04-03T07:38:43.271Z,1.83
2023-04-03T07:41:15.379Z,1.70
2023-04-03T07:43:42.638Z,1.83
2023-04-03T07:46:09.696Z,1.92
2023-04-03T07:48:36.210Z,1.70
2023-04-03T07:51:04.860Z,2.03
2023-04-03T07:53:31.637Z,1.60
2023-04-03T07:55:59.930Z,1.27
2023-04-03T07:58:26.246Z,1.52
2023-04-03T08:00:52.810Z,0.80
2023-04-03T08:03:19.280Z,1.40
2023-04-03T08:05:47.669Z,1.27
2023-04-03T08:08:24.004Z,1.30
2023-04-03T08:11:06.811Z,1.52
2023-04-03T08:13:34.353Z,1.35
2023-04-03T08:16:12.927Z,1.27
2023-04-03T08:18:42.564Z,1.45
2023-04-03T08:21:11.072Z,1.45
2023-04-03T08:23:38.492Z,1.50
2023-04-03T08:26:13.640Z,1.50
2023-04-03T08:28:40.138Z,1.45
2023-04-03T08:31:16.210Z,1.10
2023-04-03T08:33:42.412Z,1.42
2023-04-03T08:36:20.951Z,1.10
2023-04-03T08:38:48.020Z,1.38
2023-04-03T08:41:33.372Z,1.35
2023-04-03T08:44:25.099Z,1.40
2023-04-03T08:47:45.304Z,1.30
2023-04-03T08:50:18.178Z,1.65
2023-04-03T08:53:03.334Z,1.23
2023-04-03T08:55:32.240Z,1.70
2023-04-03T08:58:04.021Z,1.67
2023-04-03T09:00:53.404Z,1.80
2023-04-03T09:03:22.567Z,1.35
2023-04-03T09:05:52.516Z,1.65
2023-04-03T09:09:10.679Z,2.47
2023-04-03T09:11:59.624Z,2.58
2023-04-03T09:14:29.930Z,1.25
2023-04-03T09:16:58.582Z,1.73
2023-04-03T09:20:04.878Z,1.10
2023-04-03T09:22:41.798Z,0.77
2023-04-03T09:25:22.736Z,1.23
2023-04-03T09:27:50.612Z,0.80
2023-04-03T09:30:21.365Z,0.73
2023-04-03T09:32:50.466Z,0.75
2023-04-03T09:35:47.141Z,0.73
2023-04-03T09:38:19.213Z,0.70
2023-04-03T09:40:52.953Z,0.90
2023-04-03T09:43:36.723Z,0.80
2023-04-03T09:46:33.919Z,0.80
2023-04-03T09:49:16.494Z,0.90
2023-04-03T09:51:51.685Z,1.00
2023-04-03T09:54:37.700Z,0.80
2023-04-03T09:57:13.360Z,0.70
2023-04-03T09:59:58.332Z,0.63
2023-04-03T10:02:31.613Z,0.60
2023-04-03T10:05:08.912Z,0.70
2023-04-03T10:07:37.869Z,0.57
2023-04-03T10:10:18.166Z,0.70
2023-04-03T10:12:44.732Z,0.60
2023-04-03T10:15:16.188Z,0.80
2023-04-03T10:18:26.281Z,0.73
2023-04-03T10:20:57.897Z,0.60
2023-04-03T10:23:46.146Z,0.82
2023-04-03T10:26:56.774Z,0.80
2023-04-03T10:29:50.269Z,0.60
2023-04-03T10:32:56.604Z,0.88
2023-04-03T10:35:41.698Z,0.98
2023-04-03T10:38:24.333Z,0.80
2023-04-03T10:41:02.886Z,0.80
2023-04-03T10:44:06.119Z,0.80
2023-04-03T10:46:38.369Z,0.77
2023-04-03T10:49:20.682Z,0.95
2023-04-03T10:51:56.374Z,0.80
2023-04-03T10:54:28.102Z,1.00
2023-04-03T10:57:11.724Z,1.00
2023-04-03T11:00:19.298Z,1.08
2023-04-03T11:02:52.516Z,0.80
2023-04-03T11:05:42.689Z,0.68
2023-04-03T11:08:34.341Z,0.90
2023-04-03T11:11:11.956Z,0.70
2023-04-03T11:13:44.788Z,0.85
2023-04-03T11:16:18.948Z,1.10
2023-04-03T11:19:12.878Z,0.90
2023-04-03T11:21:47.453Z,0.70
2023-04-03T11:24:41.887Z,0.82
2023-04-03T11:27:17.620Z,0.95
2023-04-03T11:29:47.226Z,1.20
2023-04-03T11:32:41.200Z,1.00
2023-04-03T11:35:28.148Z,0.93
2023-04-03T11:37:56.373Z,0.90
2023-04-03T11:40:32.949Z,0.82
2023-04-03T11:43:00.327Z,0.52
2023-04-03T11:45:51.789Z,0.85
2023-04-03T11:48:24.809Z,1.15
2023-04-03T11:50:53.861Z,0.98
2023-04-03T11:53:37.100Z,0.68
2023-04-03T11:56:23.313Z,0.98
2023-04-03T11:59:15.058Z,0.77
2023-04-03T12:01:54.517Z,0.90
2023-04-03T12:04:24.506Z,1.00
2023-04-03T12:07:00.734Z,1.02
2023-04-03T12:09:31.832Z,0.85
2023-04-03T12:12:02.711Z,0.80
2023-04-03T12:14:30.287Z,0.90
2023-04-03T12:16:59.189Z,0.63
2023-04-03T12:19:43.939Z,0.80
2023-04-03T12:22:16.185Z,1.00
2023-04-03T12:24:47.767Z,0.80
2023-04-03T12:27:39.842Z,1.02
2023-04-03T12:30:12.545Z,0.80
2023-04-03T12:32:47.287Z,0.82
2023-04-03T12:36:01.326Z,0.82
2023-04-03T12:38:39.426Z,1.30
2023-04-03T12:41:26.547Z,0.52
2023-04-03T12:44:27.920Z,0.70
2023-04-03T12:46:55.757Z,0.73
2023-04-03T12:49:46.389Z,0.50
2023-04-03T12:52:40.579Z,0.88
2023-04-03T12:55:21.129Z,0.80
2023-04-03T12:57:50.793Z,0.80
2023-04-03T13:00:30.040Z,0.82
2023-04-03T13:02:58.238Z,1.00
2023-04-03T13:05:29.152Z,0.63
2023-04-03T13:08:05.522Z,0.70
2023-04-03T13:10:34.375Z,0.70
2023-04-03T13:13:15.939Z,0.63
2023-04-03T13:15:50.321Z,0.63
2023-04-03T13:18:26.702Z,0.70
2023-04-03T13:20:57.832Z,0.70
2023-04-03T13:23:25.073Z,0.60
2023-04-03T13:25:52.474Z,0.60
2023-04-03T13:28:25.401Z,0.65
2023-04-03T13:31:19.648Z,0.68
2023-04-03T13:34:14.208Z,0.50
2023-04-03T13:36:44.975Z,0.50
2023-04-03T13:39:16.809Z,0.50
2023-04-03T13:41:48.645Z,0.60
2023-04-03T13:44:27.899Z,0.60
2023-04-03T13:47:00.845Z,0.68
2023-04-03T13:49:30.166Z,0.82
2023-04-03T13:52:07.211Z,0.70
2023-04-03T13:54:41.606Z,0.70
2023-04-03T13:57:17.806Z,0.50
2023-04-03T13:59:47.173Z,0.85
2023-04-03T14:02:23.617Z,0.60
2023-04-03T14:05:16.662Z,0.70
2023-04-03T14:07:49.200Z,0.80
2023-04-03T14:10:20.981Z,0.50
2023-04-03T14:12:49.213Z,0.55
2023-04-03T14:15:27.961Z,0.70
2023-04-03T14:18:04.381Z,0.63
2023-04-03T14:20:35.966Z,0.40
2023-04-03T14:23:04.466Z,0.60
2023-04-03T14:25:32.720Z,0.60
2023-04-03T14:28:02.372Z,0.70
2023-04-03T14:30:37.685Z,0.68
2023-04-03T14:33:09.446Z,0.57
2023-04-03T14:35:39.587Z,0.55
2023-04-03T14:38:23.798Z,0.70
2023-04-03T14:40:57.103Z,0.70
2023-04-03T14:43:28.286Z,0.70
2023-04-03T14:45:56.646Z,0.60
2023-04-03T14:48:28.907Z,0.63
2023-04-03T14:51:05.672Z,0.60
2023-04-03T14:56:31.261Z,0.68
2023-04-03T14:59:04.734Z,0.70
2023-04-03T15:01:33.659Z,1.05
2023-04-03T15:04:24.534Z,0.60
2023-04-03T15:06:54.432Z,0.43
2023-04-03T15:09:29.253Z,0.60
2023-04-03T15:11:59.046Z,0.50
2023-04-03T15:14:36.153Z,0.50
2023-04-03T15:17:06.751Z,0.40
2023-04-03T15:19:41.635Z,0.57
2023-04-03T15:22:13.439Z,0.47
2023-04-03T15:24:42.684Z,0.40
2023-04-03T15:27:14.812Z,0.40
2023-04-03T15:29:46.839Z,0.40
2023-04-03T15:32:16.650Z,0.45
2023-04-03T15:34:46.760Z,0.50
2023-04-03T15:37:14.197Z,0.30
2023-04-03T15:39:45.584Z,0.40
2023-04-03T15:42:15.390Z,0.40
2023-04-03T15:44:48.006Z,0.50
2023-04-03T15:47:17.215Z,0.30
2023-04-03T15:49:47.600Z,0.20
2023-04-03T15:52:15.119Z,0.20
2023-04-03T15:54:43.324Z,0.40
2023-04-03T15:57:10.400Z,0.35
2023-04-03T15:59:40.243Z,0.40
2023-04-03T16:02:11.782Z,0.40
2023-04-03T16:04:39.072Z,0.25
2023-04-03T16:07:07.584Z,0.30
2023-04-03T16:09:36.318Z,0.30
2023-04-03T16:12:05.932Z,0.30
2023-04-03T16:14:34.804Z,0.45
2023-04-03T16:17:02.245Z,0.40
2023-04-03T16:19:33.361Z,0.30
2023-04-03T16:22:01.525Z,0.30
2023-04-03T16:24:28.594Z,0.50
2023-04-03T16:26:57.776Z,0.30
2023-04-03T16:29:25.135Z,0.28
2023-04-03T16:31:53.076Z,0.30
2023-04-03T16:34:21.681Z,0.20
2023-04-03T16:36:51.573Z,0.30
2023-04-03T16:39:18.157Z,0.30
2023-04-03T16:41:46.852Z,0.30
2023-04-03T16:44:16.147Z,0.17
2023-04-03T16:46:44.134Z,0.20
2023-04-03T16:49:14.312Z,0.40
2023-04-03T16:51:41.947Z,0.40
2023-04-03T16:54:12.342Z,0.30
2023-04-03T16:56:39.861Z,0.40
2023-04-03T16:59:09.577Z,0.30
2023-04-03T17:01:37.379Z,0.40
2023-04-03T17:04:05.659Z,0.55
2023-04-03T17:06:33.153Z,0.40
2023-04-03T17:09:03.320Z,0.38
2023-04-03T17:14:04.540Z,0.80
2023-04-03T17:16:34.028Z,0.47
2023-04-03T17:19:02.375Z,0.40
2023-04-03T17:21:32.463Z,0.50
2023-04-03T17:24:05.388Z,0.32
2023-04-03T17:26:32.908Z,0.40
2023-04-03T17:28:59.769Z,0.50
2023-04-03T17:31:26.468Z,0.43
2023-04-03T17:33:54.596Z,0.43
2023-04-03T17:36:22.132Z,0.70
2023-04-03T17:38:53.196Z,0.55
2023-04-03T17:41:23.140Z,0.52
2023-04-03T17:43:56.697Z,0.57
2023-04-03T17:46:26.891Z,0.50
2023-04-03T17:49:00.499Z,0.38
2023-04-03T17:51:29.161Z,0.50
2023-04-03T17:53:58.964Z,0.52
2023-04-03T17:56:28.980Z,0.47
2023-04-03T17:59:01.993Z,0.40
2023-04-03T18:01:39.423Z,0.35
2023-04-03T18:04:07.271Z,0.57
2023-04-03T18:06:47.187Z,0.50
2023-04-03T18:09:26.116Z,0.40
2023-04-03T18:11:53.500Z,0.57
2023-04-03T18:14:23.822Z,0.40
2023-04-03T18:16:51.927Z,0.60
2023-04-03T18:19:22.572Z,0.50
2023-04-03T18:21:53.954Z,0.50
2023-04-03T18:24:24.461Z,0.60
2023-04-03T18:27:07.279Z,0.52
2023-04-03T18:29:38.226Z,0.52
2023-04-03T18:32:09.821Z,0.50
2023-04-03T18:34:38.183Z,0.60
2023-04-03T18:37:06.465Z,0.80
2023-04-03T18:39:34.586Z,0.73
2023-04-03T18:42:19.966Z,0.50
2023-04-03T18:44:54.814Z,0.43
2023-04-03T18:47:23.139Z,0.60
2023-04-03T18:49:51.363Z,0.57
2023-04-03T18:52:22.194Z,0.35
2023-04-03T18:54:50.800Z,0.65
2023-04-03T18:57:20.092Z,0.55
2023-04-03T18:59:49.382Z,0.60
2023-04-03T19:02:20.161Z,0.70
2023-04-03T19:04:50.540Z,0.80
2023-04-03T19:07:17.337Z,0.55
2023-04-03T19:09:45.599Z,0.63
2023-04-03T19:12:13.766Z,0.50
2023-04-03T19:14:41.607Z,0.50
2023-04-03T19:17:10.937Z,0.60
2023-04-03T19:19:40.752Z,0.80
2023-04-03T19:22:09.179Z,0.80
2023-04-03T19:24:36.950Z,0.60
2023-04-03T19:27:05.455Z,0.75
2023-04-03T19:29:34.957Z,0.68
2023-04-03T19:32:02.361Z,0.70
2023-04-03T19:34:33.237Z,0.80
2023-04-03T19:37:02.334Z,0.80
2023-04-03T19:39:33.376Z,0.70
2023-04-03T19:42:02.714Z,0.60
2023-04-03T19:44:32.034Z,0.70
2023-04-03T19:47:02.912Z,0.60
2023-04-03T19:49:30.976Z,0.75
2023-04-03T19:51:58.979Z,0.65
2023-04-03T19:54:28.566Z,0.68
2023-04-03T19:56:58.841Z,1.00
2023-04-03T19:59:26.559Z,0.60
2023-04-03T20:01:54.234Z,0.60
2023-04-03T20:04:22.057Z,0.80
2023-04-03T20:06:53.202Z,0.70
2023-04-03T20:09:23.443Z,1.08
2023-04-03T20:11:53.841Z,0.70
2023-04-03T20:14:23.367Z,0.75
2023-04-03T20:16:51.408Z,0.90
2023-04-03T20:19:21.474Z,0.95
2023-04-03T20:21:49.940Z,0.77
2023-04-03T20:24:17.899Z,0.70
2023-04-03T20:26:48.367Z,0.70
2023-04-03T20:29:18.186Z,0.63
2023-04-03T20:31:46.447Z,0.63
2023-04-03T20:34:16.221Z,0.70
2023-04-03T20:36:49.113Z,0.70
2023-04-03T20:39:19.242Z,0.73
2023-04-03T20:41:50.256Z,0.80
2023-04-03T20:44:20.397Z,0.80
2023-04-03T20:46:53.274Z,0.80
2023-04-03T20:49:23.541Z,0.77
2023-04-03T20:51:53.074Z,0.80
2023-04-03T20:54:22.463Z,0.88
2023-04-03T20:56:51.304Z,0.80
2023-04-03T20:59:18.087Z,0.90
2023-04-03T21:01:45.641Z,0.73
2023-04-03T21:04:28.274Z,0.75
2023-04-03T21:07:32.553Z,0.70
2023-04-03T21:10:38.710Z,1.00
2023-04-03T21:13:45.766Z,0.63
2023-04-03T21:16:13.041Z,1.00
2023-04-03T21:18:52.164Z,0.80
2023-04-03T21:21:28.914Z,0.90
2023-04-03T21:23:58.019Z,0.70
2023-04-03T21:26:27.292Z,0.80
2023-04-03T21:28:56.116Z,0.65
2023-04-03T21:31:25.363Z,0.73
2023-04-03T21:33:54.298Z,0.70
2023-04-03T21:36:21.994Z,0.93
2023-04-03T21:38:49.745Z,0.70
2023-04-03T21:41:17.679Z,0.80
2023-04-03T21:43:47.850Z,0.73
2023-04-03T21:46:15.969Z,0.75
2023-04-03T21:48:47.938Z,0.88
2023-04-03T21:51:18.556Z,0.80
2023-04-03T21:53:47.319Z,0.90
2023-04-03T21:56:14.454Z,0.70
2023-04-03T21:58:41.852Z,0.80
2023-04-03T22:01:16.103Z,0.80
2023-04-03T22:03:47.365Z,0.70
2023-04-03T22:06:19.039Z,0.82
2023-04-03T22:08:46.136Z,1.00
2023-04-03T22:11:16.890Z,0.77
2023-04-03T22:13:45.916Z,0.85
2023-04-03T22:16:13.647Z,0.68
2023-04-03T22:18:42.135Z,1.10
2023-04-03T22:21:08.802Z,0.93
2023-04-03T22:23:36.461Z,0.80
2023-04-03T22:26:07.357Z,1.08
2023-04-03T22:28:42.763Z,1.00
2023-04-03T22:31:12.156Z,0.80
2023-04-03T22:33:41.415Z,0.80
2023-04-03T22:36:12.553Z,0.90
2023-04-03T22:38:43.048Z,0.80
2023-04-03T22:41:12.648Z,0.80
2023-04-03T22:43:44.488Z,0.88
2023-04-03T22:46:14.085Z,0.80
2023-04-03T22:48:45.624Z,0.80
2023-04-03T22:51:13.536Z,0.93
2023-04-03T22:53:43.213Z,0.82
2023-04-03T22:56:14.350Z,1.02
2023-04-03T22:58:44.460Z,0.93
2023-04-03T23:01:15.894Z,0.88
2023-04-03T23:03:42.874Z,0.85
2023-04-03T23:06:11.384Z,0.88
2023-04-03T23:08:39.225Z,0.95
2023-04-03T23:11:13.287Z,0.90
2023-04-03T23:13:43.064Z,0.98
2023-04-03T23:16:11.921Z,0.90
2023-04-03T23:18:43.670Z,1.15
2023-04-03T23:21:12.495Z,0.88
2023-04-03T23:23:38.971Z,0.82
2023-04-03T23:26:11.666Z,1.10
2023-04-03T23:28:40.859Z,0.98
2023-04-03T23:31:08.704Z,0.90
2023-04-03T23:33:40.365Z,0.88
2023-04-03T23:36:09.339Z,1.30
2023-04-03T23:38:38.266Z,1.00
2023-04-03T23:41:06.244Z,0.85
2023-04-03T23:43:36.478Z,0.68
2023-04-03T23:46:04.776Z,0.70
2023-04-03T23:48:32.027Z,0.85
2023-04-03T23:50:59.137Z,0.88
2023-04-03T23:53:27.288Z,1.10
2023-04-03T23:55:55.879Z,0.85
2023-04-03T23:58:23.432Z,0.75
